Observation data for O'Donnell on 03/11/2018      Previous  Date  Next       Current Mesonet Observations  Soil Data  Daily Summary Page  Observations in Plain Language
KOES 110600Z 32006KT 19/M13 A2988 RMK A01 T01881128  RH  010%=      5-min Rain = 0
KOES 110605Z 29007KT 18/M13 A2989 RMK A01 T01841127  RH  011%=      5-min Rain = 0
KOES 110610Z 30004KT 18/M13 A2989 RMK A01 T01831128  RH  011%=      5-min Rain = 0
KOES 110615Z 32007KT 19/M13 A299 RMK A01 T01871128  RH  011%=      5-min Rain = 0
KOES 110620Z 33010KT 18/M13 A299 RMK A01 T01821126  RH  011%=      5-min Rain = 0
KOES 110625Z 33010KT 17/M13 A299 RMK A01 T01721128  RH  012%=      5-min Rain = 0
KOES 110630Z 33009KT 17/M13 A2991 RMK A01 T01691127  RH  012%=      5-min Rain = 0
KOES 110635Z 35010KT 17/M12 A2991 RMK A01 T01671122  RH  013%=      5-min Rain = 0
KOES 110640Z 35014KT 16/M11 A2992 RMK A01 T01631106  RH  015%=      5-min Rain = 0
KOES 110645Z 36015KT 16/M09 A2992 RMK A01 T01611088  RH  017%=      5-min Rain = 0
KOES 110650Z 00015KT 16/M08 A2992 RMK A01 T01581079  RH  019%=      5-min Rain = 0
KOES 110655Z 01016KT 16/M07 A2993 RMK A01 T01581067  RH  021%=      5-min Rain = 0
KOES 110700Z 01016G21KT 16/M06 A2993 RMK A01 T01571059  RH  022%=      5-min Rain = 0
KOES 110705Z 01018G23KT 16/M05 A2994 RMK A01 T01561052  RH  024%=      5-min Rain = 0
KOES 110710Z 01018G23KT 16/M05 A2994 RMK A01 T01551051  RH  024%=      5-min Rain = 0
KOES 110715Z 02020G28KT 15/M05 A2994 RMK A01 T01531050  RH  024%=      5-min Rain = 0
KOES 110720Z 02023G29KT 15/M05 A2994 RMK A01 T01541050  RH  024%=      5-min Rain = 0
KOES 110725Z 03024G31KT 15/M05 A2994 RMK A01 T01521050  RH  025%=      5-min Rain = 0
KOES 110730Z 03027G36KT 15/M03 A2994 RMK A01 T01521028  RH  029%=      5-min Rain = 0
KOES 110735Z 03030G39KT 15/01 A2994 RMK A01 T01510007  RH  038%=      5-min Rain = 0
KOES 110740Z 03029G37KT 15/03 A2995 RMK A01 T01520029  RH  044%=      5-min Rain = 0
KOES 110745Z 02025G32KT 15/04 A2996 RMK A01 T01510041  RH  049%=      5-min Rain = 0
KOES 110750Z 02023G31KT 15/05 A2996 RMK A01 T01500050  RH  052%=      5-min Rain = 0
KOES 110755Z 03023G30KT 15/06 A2997 RMK A01 T01490059  RH  056%=      5-min Rain = 0
KOES 110800Z 03026G32KT 15/07 A2996 RMK A01 T01480065  RH  059%=      5-min Rain = 0
KOES 110805Z 02027G38KT 15/03 A2997 RMK A01 T01450026  RH  046%=      5-min Rain = 0
KOES 110810Z 02027G33KT 14/M01 A2997 RMK A01 T01381007  RH  037%=      5-min Rain = 0
KOES 110815Z 02029G35KT 14/M01 A2998 RMK A01 T01361013  RH  036%=      5-min Rain = 0
KOES 110820Z 02030G38KT 13/M02 A2998 RMK A01 T01341018  RH  035%=      5-min Rain = 0
KOES 110825Z 02029G36KT 13/M02 A2998 RMK A01 T01321024  RH  034%=      5-min Rain = 0
KOES 110830Z 03029G36KT 13/M03 A2998 RMK A01 T01311028  RH  033%=      5-min Rain = 0
KOES 110835Z 02028G34KT 13/M03 A2998 RMK A01 T01311032  RH  032%=      5-min Rain = 0
KOES 110840Z 03030G36KT 13/M03 A2998 RMK A01 T01311033  RH  032%=      5-min Rain = 0
KOES 110845Z 03028G35KT 13/M04 A2998 RMK A01 T01311037  RH  031%=      5-min Rain = 0
KOES 110850Z 03029G35KT 13/M05 A2998 RMK A01 T01311046  RH  029%=      5-min Rain = 0
KOES 110855Z 03031G37KT 13/M05 A2998 RMK A01 T01291053  RH  028%=      5-min Rain = 0
KOES 110900Z 03027G34KT 13/M06 A2999 RMK A01 T01271055  RH  028%=      5-min Rain = 0
KOES 110905Z 03031G37KT 13/M06 A2999 RMK A01 T01261057  RH  028%=      5-min Rain = 0
KOES 110910Z 03029G37KT 13/M06 A2999 RMK A01 T01251058  RH  028%=      5-min Rain = 0
KOES 110915Z 03029G36KT 12/M06 A30 RMK A01 T01241058  RH  028%=      5-min Rain = 0
KOES 110920Z 03027G34KT 12/M06 A30 RMK A01 T01231058  RH  028%=      5-min Rain = 0
KOES 110925Z 03026G34KT 12/M06 A30 RMK A01 T01221058  RH  028%=      5-min Rain = 0
KOES 110930Z 03026G36KT 12/M06 A30 RMK A01 T01201058  RH  028%=      5-min Rain = 0
KOES 110935Z 03027G35KT 12/M06 A3001 RMK A01 T01191058  RH  029%=      5-min Rain = 0
KOES 110940Z 03028G35KT 12/M06 A3001 RMK A01 T01181056  RH  029%=      5-min Rain = 0
KOES 110945Z 03028G35KT 12/M05 A3002 RMK A01 T01171054  RH  030%=      5-min Rain = 0
KOES 110950Z 03028G36KT 12/M05 A3002 RMK A01 T01161053  RH  030%=      5-min Rain = 0
KOES 110955Z 03028G33KT 12/M05 A3002 RMK A01 T01151052  RH  031%=      5-min Rain = 0
KOES 111000Z 02028G34KT 12/M05 A3002 RMK A01 T01151051  RH  031%=      5-min Rain = 0
KOES 111005Z 03029G39KT 11/M05 A3002 RMK A01 T01141048  RH  032%=      5-min Rain = 0
KOES 111010Z 03029G35KT 11/M05 A3003 RMK A01 T01131047  RH  032%=      5-min Rain = 0
KOES 111015Z 03027G33KT 11/M05 A3003 RMK A01 T01121047  RH  033%=      5-min Rain = 0
KOES 111020Z 03028G34KT 11/M05 A3003 RMK A01 T01111047  RH  033%=      5-min Rain = 0
KOES 111025Z 03025G33KT 11/M05 A3003 RMK A01 T01101047  RH  033%=      5-min Rain = 0
KOES 111030Z 03026G32KT 11/M05 A3004 RMK A01 T01101048  RH  033%=      5-min Rain = 0
KOES 111035Z 03027G34KT 11/M05 A3004 RMK A01 T01101050  RH  032%=      5-min Rain = 0
KOES 111040Z 03025G31KT 11/M05 A3004 RMK A01 T01101051  RH  032%=      5-min Rain = 0
KOES 111045Z 03025G33KT 11/M05 A3004 RMK A01 T01091053  RH  032%=      5-min Rain = 0
KOES 111050Z 03024G30KT 11/M05 A3005 RMK A01 T01091053  RH  032%=      5-min Rain = 0
KOES 111055Z 03025G30KT 11/M05 A3004 RMK A01 T01091054  RH  032%=      5-min Rain = 0
KOES 111100Z 03025G31KT 11/M05 A3005 RMK A01 T01081054  RH  032%=      5-min Rain = 0
KOES 111105Z 03023G28KT 11/M05 A3005 RMK A01 T01071054  RH  032%=      5-min Rain = 0
KOES 111110Z 03023G31KT 11/M05 A3005 RMK A01 T01061054  RH  032%=      5-min Rain = 0
KOES 111115Z 03024G30KT 11/M06 A3005 RMK A01 T01061055  RH  032%=      5-min Rain = 0
KOES 111120Z 03022G28KT 11/M06 A3006 RMK A01 T01061056  RH  032%=      5-min Rain = 0
KOES 111125Z 03021KT 11/M06 A3006 RMK A01 T01051057  RH  031%=      5-min Rain = 0
KOES 111130Z 03023G29KT 11/M06 A3006 RMK A01 T01051059  RH  031%=      5-min Rain = 0
KOES 111135Z 03023G29KT 11/M06 A3006 RMK A01 T01051062  RH  030%=      5-min Rain = 0
KOES 111140Z 03023G29KT 10/M06 A3007 RMK A01 T01041064  RH  030%=      5-min Rain = 0
KOES 111145Z 03022G28KT 10/M07 A3007 RMK A01 T01041065  RH  030%=      5-min Rain = 0
KOES 111150Z 03024G31KT 10/M07 A3007 RMK A01 T01031065  RH  030%=      5-min Rain = 0
KOES 111155Z 03024G32KT 10/M07 A3008 RMK A01 T01031066  RH  030%=      5-min Rain = 0
KOES 111200Z 03023G29KT 10/M07 A3008 RMK A01 T01031066  RH  030%=      5-min Rain = 0
KOES 111205Z 03023G31KT 10/M07 A3008 RMK A01 T01021066  RH  030%=      5-min Rain = 0
KOES 111210Z 03023G29KT 10/M06 A3008 RMK A01 T01021064  RH  030%=      5-min Rain = 0
KOES 111215Z 02022G30KT 10/M06 A3009 RMK A01 T01011064  RH  031%=      5-min Rain = 0
KOES 111220Z 03022G29KT 10/M06 A3009 RMK A01 T01011062  RH  031%=      5-min Rain = 0
KOES 111225Z 03022G30KT 10/M06 A3009 RMK A01 T01001061  RH  032%=      5-min Rain = 0
KOES 111230Z 03023G29KT 10/M06 A301 RMK A01 T01001059  RH  032%=      5-min Rain = 0
KOES 111235Z 02024G30KT 10/M06 A3011 RMK A01 T00991056  RH  033%=      5-min Rain = 0
KOES 111240Z 03025G32KT 10/M06 A3011 RMK A01 T00981056  RH  033%=      5-min Rain = 0
KOES 111245Z 03026G32KT 10/M06 A3011 RMK A01 T00971058  RH  033%=      5-min Rain = 0
KOES 111250Z 03025G33KT 10/M06 A3012 RMK A01 T00971058  RH  033%=      5-min Rain = 0
KOES 111255Z 03025G30KT 10/M06 A3012 RMK A01 T00961059  RH  033%=      5-min Rain = 0
KOES 111300Z 03024G31KT 10/M06 A3013 RMK A01 T00951059  RH  033%=      5-min Rain = 0
KOES 111305Z 02022KT 10/M06 A3014 RMK A01 T00951059  RH  033%=      5-min Rain = 0
KOES 111310Z 02021G31KT 09/M06 A3014 RMK A01 T00941058  RH  034%=      5-min Rain = 0
KOES 111315Z 02021G28KT 09/M06 A3015 RMK A01 T00941059  RH  033%=      5-min Rain = 0
KOES 111320Z 02021G29KT 09/M06 A3015 RMK A01 T00931058  RH  034%=      5-min Rain = 0
KOES 111325Z 02023G29KT 09/M06 A3016 RMK A01 T00931057  RH  034%=      5-min Rain = 0
KOES 111330Z 02023G30KT 09/M06 A3016 RMK A01 T00921056  RH  035%=      5-min Rain = 0
KOES 111335Z 02022G27KT 09/M06 A3016 RMK A01 T00921057  RH  034%=      5-min Rain = 0
KOES 111340Z 02018KT 09/M06 A3016 RMK A01 T00921056  RH  035%=      5-min Rain = 0
KOES 111345Z 02019KT 09/M06 A3017 RMK A01 T00921055  RH  035%=      5-min Rain = 0
KOES 111350Z 02018G25KT 09/M06 A3017 RMK A01 T00921055  RH  035%=      5-min Rain = 0
KOES 111355Z 02019G25KT 09/M06 A3018 RMK A01 T00911055  RH  035%=      5-min Rain = 0
KOES 111400Z 02020G25KT 09/M06 A3018 RMK A01 T00901055  RH  035%=      5-min Rain = 0
KOES 111405Z 02021KT 09/M06 A3018 RMK A01 T00901056  RH  035%=      5-min Rain = 0
KOES 111410Z 02022G27KT 09/M06 A3019 RMK A01 T00901057  RH  035%=      5-min Rain = 0
KOES 111415Z 02020G26KT 09/M06 A3019 RMK A01 T00901055  RH  035%=      5-min Rain = 0
KOES 111420Z 01021KT 09/M06 A3019 RMK A01 T00901055  RH  036%=      5-min Rain = 0
KOES 111425Z 01024KT 09/M06 A302 RMK A01 T00881060  RH  035%=      5-min Rain = 0
KOES 111430Z 02022G27KT 09/M06 A302 RMK A01 T00871061  RH  035%=      5-min Rain = 0
KOES 111435Z 01022G27KT 09/M06 A302 RMK A01 T00871063  RH  034%=      5-min Rain = 0
KOES 111440Z 01020G25KT 09/M07 A3021 RMK A01 T00871065  RH  033%=      5-min Rain = 0
KOES 111445Z 01020G27KT 09/M07 A3021 RMK A01 T00871066  RH  033%=      5-min Rain = 0
KOES 111450Z 01024G30KT 09/M07 A3021 RMK A01 T00861070  RH  032%=      5-min Rain = 0
KOES 111455Z 01022G29KT 09/M07 A3022 RMK A01 T00861072  RH  032%=      5-min Rain = 0
KOES 111500Z 01023G29KT 09/M08 A3022 RMK A01 T00871076  RH  031%=      5-min Rain = 0
KOES 111505Z 01023G30KT 09/M08 A3022 RMK A01 T00871078  RH  030%=      5-min Rain = 0
KOES 111510Z 01022G27KT 09/M08 A3023 RMK A01 T00861081  RH  030%=      5-min Rain = 0
KOES 111515Z 02024G29KT 09/M08 A3023 RMK A01 T00861083  RH  029%=      5-min Rain = 0
KOES 111520Z 02022G28KT 09/M08 A3023 RMK A01 T00861083  RH  029%=      5-min Rain = 0
KOES 111525Z 02023G30KT 09/M08 A3023 RMK A01 T00881084  RH  029%=      5-min Rain = 0
KOES 111530Z 02020KT 09/M08 A3023 RMK A01 T00901084  RH  028%=      5-min Rain = 0
KOES 111535Z 01021G27KT 09/M09 A3023 RMK A01 T00941085  RH  027%=      5-min Rain = 0
KOES 111540Z 02023G28KT 10/M09 A3023 RMK A01 T00951087  RH  027%=      5-min Rain = 0
KOES 111545Z 02023G30KT 10/M09 A3024 RMK A01 T00961091  RH  026%=      5-min Rain = 0
KOES 111550Z 02023G30KT 10/M10 A3024 RMK A01 T00961095  RH  025%=      5-min Rain = 0
KOES 111555Z 02025G30KT 09/M10 A3024 RMK A01 T00941100  RH  024%=      5-min Rain = 0
KOES 111600Z 02021G29KT 09/M10 A3024 RMK A01 T00941101  RH  024%=      5-min Rain = 0
KOES 111605Z 02024G30KT 09/M10 A3024 RMK A01 T00941103  RH  024%=      5-min Rain = 0
KOES 111610Z 03022G27KT 10/M11 A3025 RMK A01 T00971106  RH  023%=      5-min Rain = 0
KOES 111615Z 02024G29KT 10/M11 A3025 RMK A01 T00981111  RH  022%=      5-min Rain = 0
KOES 111620Z 02024G30KT 10/M12 A3025 RMK A01 T00981117  RH  021%=      5-min Rain = 0
KOES 111625Z 03023G29KT 10/M12 A3026 RMK A01 T00971115  RH  021%=      5-min Rain = 0
KOES 111630Z 03022G29KT 10/M11 A3026 RMK A01 T00961114  RH  021%=      5-min Rain = 0
KOES 111635Z 03021G26KT 10/M11 A3027 RMK A01 T00991112  RH  021%=      5-min Rain = 0
KOES 111640Z 02021G26KT 10/M11 A3027 RMK A01 T01011109  RH  022%=      5-min Rain = 0
KOES 111645Z 02022G27KT 10/M11 A3027 RMK A01 T01011110  RH  021%=      5-min Rain = 0
KOES 111650Z 02021G26KT 10/M11 A3027 RMK A01 T01031111  RH  021%=      5-min Rain = 0
KOES 111655Z 02023G29KT 10/M11 A3027 RMK A01 T01041114  RH  020%=      5-min Rain = 0
KOES 111700Z 03021KT 11/M11 A3027 RMK A01 T01051112  RH  020%=      5-min Rain = 0
KOES 111705Z 03023G29KT 11/M12 A3027 RMK A01 T01091118  RH  019%=      5-min Rain = 0
KOES 111710Z 03021KT 11/M11 A3027 RMK A01 T01131114  RH  019%=      5-min Rain = 0
KOES 111715Z 01021KT 11/M11 A3028 RMK A01 T01121106  RH  020%=      5-min Rain = 0
KOES 111720Z 01020G25KT 11/M11 A3028 RMK A01 T01111105  RH  021%=      5-min Rain = 0
KOES 111725Z 01022G27KT 11/M11 A3028 RMK A01 T01101106  RH  021%=      5-min Rain = 0
KOES 111730Z 02020G26KT 11/M10 A3028 RMK A01 T01101102  RH  021%=      5-min Rain = 0
KOES 111735Z 02020G25KT 11/M10 A3028 RMK A01 T01081101  RH  022%=      5-min Rain = 0
KOES 111740Z 02021G26KT 11/M11 A3028 RMK A01 T01051107  RH  021%=      5-min Rain = 0
KOES 111745Z 02018G23KT 11/M11 A3028 RMK A01 T01081108  RH  021%=      5-min Rain = 0
KOES 111750Z 02021KT 11/M11 A3028 RMK A01 T01101110  RH  020%=      5-min Rain = 0
KOES 111755Z 02019G25KT 11/M11 A3029 RMK A01 T01091107  RH  021%=      5-min Rain = 0
KOES 111800Z 02019G24KT 11/M11 A3029 RMK A01 T01081105  RH  021%=      5-min Rain = 0
KOES 111805Z 02018G24KT 11/M11 A3029 RMK A01 T01081107  RH  021%=      5-min Rain = 0
KOES 111810Z 02020G26KT 11/M11 A3029 RMK A01 T01071110  RH  020%=      5-min Rain = 0
KOES 111815Z 01019G24KT 11/M11 A3029 RMK A01 T01071113  RH  020%=      5-min Rain = 0
KOES 111820Z 02019G24KT 11/M11 A3029 RMK A01 T01101114  RH  019%=      5-min Rain = 0
KOES 111825Z 03020KT 11/M12 A3029 RMK A01 T01091115  RH  020%=      5-min Rain = 0
KOES 111830Z 02019G24KT 11/M11 A3029 RMK A01 T01081105  RH  021%=      5-min Rain = 0
KOES 111835Z 01018G25KT 11/M10 A3029 RMK A01 T01091104  RH  021%=      5-min Rain = 0
KOES 111840Z 01021KT 11/M11 A3029 RMK A01 T01061108  RH  021%=      5-min Rain = 0
KOES 111845Z 01019KT 10/M11 A3029 RMK A01 T01031105  RH  022%=      5-min Rain = 0
KOES 111850Z 02019KT 10/M11 A3029 RMK A01 T01031105  RH  022%=      5-min Rain = 0
KOES 111855Z 01018KT 10/M10 A3029 RMK A01 T01021103  RH  022%=      5-min Rain = 0
KOES 111900Z 02016G21KT 11/M10 A3029 RMK A01 T01061100  RH  022%=      5-min Rain = 0
KOES 111905Z 01016KT 11/M10 A3029 RMK A01 T01061101  RH  022%=      5-min Rain = 0
KOES 111910Z 00015KT 11/M10 A3028 RMK A01 T01071099  RH  022%=      5-min Rain = 0
KOES 111915Z 01016G21KT 11/M10 A3028 RMK A01 T01091099  RH  022%=      5-min Rain = 0
KOES 111920Z 02016G21KT 11/M10 A3028 RMK A01 T01111100  RH  022%=      5-min Rain = 0
KOES 111925Z 02016KT 11/M10 A3028 RMK A01 T01131104  RH  021%=      5-min Rain = 0
KOES 111930Z 02017G25KT 11/M11 A3028 RMK A01 T01111107  RH  020%=      5-min Rain = 0
KOES 111935Z 00015KT 11/M11 A3028 RMK A01 T01121107  RH  020%=      5-min Rain = 0
KOES 111940Z 36014G19KT 11/M11 A3027 RMK A01 T01121105  RH  021%=      5-min Rain = 0
KOES 111945Z 00016G21KT 11/M10 A3027 RMK A01 T01141103  RH  021%=      5-min Rain = 0
KOES 111950Z 00014G19KT 11/M10 A3027 RMK A01 T01141103  RH  021%=      5-min Rain = 0
KOES 111955Z 36014G22KT 12/M10 A3027 RMK A01 T01171101  RH  021%=      5-min Rain = 0
KOES 112000Z 36016G21KT 12/M10 A3027 RMK A01 T01181098  RH  021%=      5-min Rain = 0
KOES 112005Z 02016G21KT 12/M10 A3027 RMK A01 T01191103  RH  020%=      5-min Rain = 0
KOES 112010Z 02014G21KT 12/M10 A3027 RMK A01 T01191100  RH  021%=      5-min Rain = 0
KOES 112015Z 01014KT 12/M10 A3027 RMK A01 T01221104  RH  020%=      5-min Rain = 0
KOES 112020Z 01014G21KT 13/M10 A3027 RMK A01 T01261104  RH  019%=      5-min Rain = 0
KOES 112025Z 00017KT 12/M10 A3027 RMK A01 T01241104  RH  019%=      5-min Rain = 0
KOES 112030Z 01011KT 12/M10 A3026 RMK A01 T01241104  RH  019%=      5-min Rain = 0
KOES 112035Z 01014G19KT 13/M11 A3026 RMK A01 T01251105  RH  019%=      5-min Rain = 0
KOES 112040Z 01017KT 13/M11 A3026 RMK A01 T01251107  RH  019%=      5-min Rain = 0
KOES 112045Z 01015G20KT 13/M11 A3025 RMK A01 T01261107  RH  019%=      5-min Rain = 0
KOES 112050Z 01016G21KT 13/M11 A3025 RMK A01 T01291107  RH  018%=      5-min Rain = 0
KOES 112055Z 01014G20KT 13/M11 A3025 RMK A01 T01271107  RH  018%=      5-min Rain = 0
KOES 112100Z 00014KT 13/M11 A3025 RMK A01 T01271107  RH  018%=      5-min Rain = 0
KOES 112105Z 01014G21KT 13/M11 A3025 RMK A01 T01281108  RH  018%=      5-min Rain = 0
KOES 112110Z 02015G21KT 13/M11 A3025 RMK A01 T01281108  RH  018%=      5-min Rain = 0
KOES 112115Z 02013KT 13/M11 A3024 RMK A01 T01281107  RH  018%=      5-min Rain = 0
KOES 112120Z 01017G24KT 13/M11 A3024 RMK A01 T01301107  RH  018%=      5-min Rain = 0
KOES 112125Z 01017G22KT 13/M11 A3024 RMK A01 T01291108  RH  018%=      5-min Rain = 0
KOES 112130Z 01013G21KT 13/M11 A3024 RMK A01 T01281108  RH  018%=      5-min Rain = 0
KOES 112135Z 03015KT 13/M11 A3024 RMK A01 T01301108  RH  018%=      5-min Rain = 0
KOES 112140Z 01016G21KT 13/M10 A3024 RMK A01 T01301104  RH  019%=      5-min Rain = 0
KOES 112145Z 01013G23KT 13/M10 A3024 RMK A01 T01321103  RH  018%=      5-min Rain = 0
KOES 112150Z 01017G22KT 13/M09 A3024 RMK A01 T01311086  RH  021%=      5-min Rain = 0
KOES 112155Z 02014KT 13/M09 A3024 RMK A01 T01281088  RH  021%=      5-min Rain = 0
KOES 112200Z 02014G23KT 13/M09 A3023 RMK A01 T01301091  RH  020%=      5-min Rain = 0
KOES 112205Z 35015KT 13/M10 A3024 RMK A01 T01301096  RH  020%=      5-min Rain = 0
KOES 112210Z 36014G22KT 13/M10 A3024 RMK A01 T01301104  RH  018%=      5-min Rain = 0
KOES 112215Z 00015KT 13/M11 A3024 RMK A01 T01301106  RH  018%=      5-min Rain = 0
KOES 112220Z 36012G17KT 13/M11 A3023 RMK A01 T01281107  RH  018%=      5-min Rain = 0
KOES 112225Z 01014KT 13/M11 A3023 RMK A01 T01301106  RH  018%=      5-min Rain = 0
KOES 112230Z 01012KT 13/M11 A3023 RMK A01 T01301106  RH  018%=      5-min Rain = 0
KOES 112235Z 00013KT 13/M11 A3024 RMK A01 T01311105  RH  018%=      5-min Rain = 0
KOES 112240Z 01013G18KT 13/M11 A3024 RMK A01 T01311106  RH  018%=      5-min Rain = 0
KOES 112245Z 01013KT 13/M11 A3024 RMK A01 T01321106  RH  018%=      5-min Rain = 0
KOES 112250Z 01013KT 13/M11 A3024 RMK A01 T01331106  RH  018%=      5-min Rain = 0
KOES 112255Z 00011G17KT 13/M11 A3024 RMK A01 T01331106  RH  018%=      5-min Rain = 0
KOES 112300Z 35012KT 14/M11 A3024 RMK A01 T01361107  RH  017%=      5-min Rain = 0
KOES 112305Z 00014KT 14/M11 A3024 RMK A01 T01381110  RH  017%=      5-min Rain = 0
KOES 112310Z 01014KT 14/M11 A3024 RMK A01 T01411111  RH  016%=      5-min Rain = 0
KOES 112315Z 36013KT 14/M11 A3024 RMK A01 T01421112  RH  016%=      5-min Rain = 0
KOES 112320Z 01013KT 14/M11 A3024 RMK A01 T01431113  RH  016%=      5-min Rain = 0
KOES 112325Z 01014KT 14/M12 A3024 RMK A01 T01401116  RH  016%=      5-min Rain = 0
KOES 112330Z 01014KT 14/M12 A3024 RMK A01 T01371117  RH  016%=      5-min Rain = 0
KOES 112335Z 01014KT 14/M12 A3024 RMK A01 T01361118  RH  016%=      5-min Rain = 0
KOES 112340Z 02014KT 14/M12 A3025 RMK A01 T01361118  RH  016%=      5-min Rain = 0
KOES 112345Z 02012KT 14/M12 A3025 RMK A01 T01361119  RH  016%=      5-min Rain = 0
KOES 112350Z 01013KT 14/M12 A3024 RMK A01 T01361119  RH  016%=      5-min Rain = 0
KOES 112355Z 01013KT 13/M12 A3024 RMK A01 T01331120  RH  016%=      5-min Rain = 0
KOES 120000Z 01013KT 13/M12 A3025 RMK A01 T01301121  RH  016%=      5-min Rain = 0
KOES 120005Z 02013KT 13/M12 A3025 RMK A01 T01291123  RH  016%=      5-min Rain = 0
KOES 120010Z 01013KT 13/M12 A3025 RMK A01 T01281123  RH  016%=      5-min Rain = 0
KOES 120015Z 00013KT 13/M12 A3025 RMK A01 T01251123  RH  016%=      5-min Rain = 0
KOES 120020Z 00013KT 12/M12 A3025 RMK A01 T01221123  RH  017%=      5-min Rain = 0
KOES 120025Z 00011KT 12/M12 A3026 RMK A01 T01201122  RH  017%=      5-min Rain = 0
KOES 120030Z 01010KT 12/M12 A3026 RMK A01 T01201122  RH  017%=      5-min Rain = 0
KOES 120035Z 01009KT 12/M12 A3026 RMK A01 T01191122  RH  017%=      5-min Rain = 0
KOES 120040Z 02008KT 12/M12 A3027 RMK A01 T01181123  RH  017%=      5-min Rain = 0
KOES 120045Z 02006KT 12/M12 A3027 RMK A01 T01161124  RH  017%=      5-min Rain = 0
KOES 120050Z 02007KT 11/M13 A3027 RMK A01 T01141125  RH  017%=      5-min Rain = 0
KOES 120055Z 02006KT 11/M13 A3027 RMK A01 T01111126  RH  018%=      5-min Rain = 0
KOES 120100Z 02006KT 11/M13 A3027 RMK A01 T01061127  RH  018%=      5-min Rain = 0
KOES 120105Z 01006KT 10/M13 A3027 RMK A01 T01011128  RH  018%=      5-min Rain = 0
KOES 120110Z 02007KT 10/M13 A3027 RMK A01 T00971128  RH  019%=      5-min Rain = 0
KOES 120115Z 01007KT 09/M13 A3028 RMK A01 T00941128  RH  019%=      5-min Rain = 0
KOES 120120Z 01006KT 09/M13 A3028 RMK A01 T00921128  RH  020%=      5-min Rain = 0
KOES 120125Z 01006KT 09/M13 A3028 RMK A01 T00891127  RH  020%=      5-min Rain = 0
KOES 120130Z 00006KT 09/M13 A3028 RMK A01 T00861126  RH  021%=      5-min Rain = 0
KOES 120135Z 36006KT 09/M13 A3029 RMK A01 T00851128  RH  021%=      5-min Rain = 0
KOES 120140Z 35006KT 09/M13 A3029 RMK A01 T00851131  RH  020%=      5-min Rain = 0
KOES 120145Z 36007KT 08/M13 A3029 RMK A01 T00821129  RH  021%=      5-min Rain = 0
KOES 120150Z 00007KT 08/M13 A3029 RMK A01 T00841130  RH  020%=      5-min Rain = 0
KOES 120155Z 36007KT 08/M13 A3029 RMK A01 T00811130  RH  021%=      5-min Rain = 0
KOES 120200Z 36007KT 08/M13 A3029 RMK A01 T00821130  RH  021%=      5-min Rain = 0
KOES 120205Z 36008KT 08/M13 A3029 RMK A01 T00771133  RH  021%=      5-min Rain = 0
KOES 120210Z 36008KT 07/M13 A3029 RMK A01 T00731133  RH  021%=      5-min Rain = 0
KOES 120215Z 36008KT 07/M13 A303 RMK A01 T00721134  RH  021%=      5-min Rain = 0
KOES 120220Z 36009KT 07/M14 A303 RMK A01 T00691137  RH  021%=      5-min Rain = 0
KOES 120225Z 00009KT 07/M14 A303 RMK A01 T00701140  RH  021%=      5-min Rain = 0
KOES 120230Z 00008KT 07/M14 A303 RMK A01 T00691142  RH  020%=      5-min Rain = 0
KOES 120235Z 01009KT 07/M14 A303 RMK A01 T00671142  RH  021%=      5-min Rain = 0
KOES 120240Z 01008KT 06/M14 A303 RMK A01 T00631142  RH  021%=      5-min Rain = 0
KOES 120245Z 00008KT 06/M14 A303 RMK A01 T00591142  RH  022%=      5-min Rain = 0
KOES 120250Z 00008KT 06/M14 A3031 RMK A01 T00581143  RH  022%=      5-min Rain = 0
KOES 120255Z 01008KT 06/M15 A3031 RMK A01 T00581145  RH  022%=      5-min Rain = 0
KOES 120300Z 01008KT 05/M14 A3031 RMK A01 T00541143  RH  022%=      5-min Rain = 0
KOES 120305Z 01008KT 05/M14 A3031 RMK A01 T00501142  RH  023%=      5-min Rain = 0
KOES 120310Z 01008KT 05/M14 A3031 RMK A01 T00501141  RH  024%=      5-min Rain = 0
KOES 120315Z 01008KT 05/M14 A3031 RMK A01 T00511144  RH  023%=      5-min Rain = 0
KOES 120320Z 01008KT 05/M15 A3032 RMK A01 T00501145  RH  023%=      5-min Rain = 0
KOES 120325Z 01009KT 05/M15 A3032 RMK A01 T00481145  RH  023%=      5-min Rain = 0
KOES 120330Z 01008KT 05/M15 A3032 RMK A01 T00461146  RH  023%=      5-min Rain = 0
KOES 120335Z 02008KT 04/M15 A3032 RMK A01 T00431148  RH  023%=      5-min Rain = 0
KOES 120340Z 01008KT 04/M15 A3032 RMK A01 T00391149  RH  024%=      5-min Rain = 0
KOES 120345Z 01008KT 04/M15 A3033 RMK A01 T00371150  RH  024%=      5-min Rain = 0
KOES 120350Z 01007KT 04/M15 A3033 RMK A01 T00351151  RH  024%=      5-min Rain = 0
KOES 120355Z 01007KT 03/M15 A3033 RMK A01 T00331153  RH  024%=      5-min Rain = 0
KOES 120400Z 01006KT 03/M16 A3033 RMK A01 T00311155  RH  024%=      5-min Rain = 0
KOES 120405Z 00005KT 03/M16 A3033 RMK A01 T00281156  RH  024%=      5-min Rain = 0
KOES 120410Z 36004KT 02/M16 A3033 RMK A01 T00241158  RH  024%=      5-min Rain = 0
KOES 120415Z 36004KT 02/M16 A3033 RMK A01 T00211158  RH  025%=      5-min Rain = 0
KOES 120420Z 01004KT 02/M16 A3034 RMK A01 T00211158  RH  025%=      5-min Rain = 0
KOES 120425Z 35004KT 02/M16 A3034 RMK A01 T00211158  RH  025%=      5-min Rain = 0
KOES 120430Z 36003KT 02/M16 A3034 RMK A01 T00211155  RH  026%=      5-min Rain = 0
KOES 120435Z 35003KT 03/M15 A3034 RMK A01 T00271153  RH  025%=      5-min Rain = 0
KOES 120440Z 35003KT 03/M16 A3034 RMK A01 T00271158  RH  024%=      5-min Rain = 0
KOES 120445Z 01004KT 03/M16 A3034 RMK A01 T00251159  RH  024%=      5-min Rain = 0
KOES 120450Z 01005KT 02/M16 A3034 RMK A01 T00241161  RH  024%=      5-min Rain = 0
KOES 120455Z 01005KT 02/M16 A3034 RMK A01 T00241159  RH  024%=      5-min Rain = 0

Page generated in 0.0157 seconds.